createdAt,value
2018-06-27T00:00:38.032Z,1001.41
2018-06-27T00:01:48.109Z,1001.42
2018-06-27T00:02:58.172Z,1001.39
2018-06-27T00:04:07.986Z,1001.43
2018-06-27T00:05:18.056Z,1001.41
2018-06-27T00:06:28.123Z,1001.36
2018-06-27T00:07:37.938Z,1001.33
2018-06-27T00:08:47.741Z,1001.31
2018-06-27T00:09:57.807Z,1001.32
2018-06-27T00:11:07.884Z,1001.35
2018-06-27T00:12:18.004Z,1001.28
2018-06-27T00:13:28.079Z,1001.27
2018-06-27T00:14:38.169Z,1001.25
2018-06-27T00:15:48.251Z,1001.18
2018-06-27T00:16:58.304Z,1001.14
2018-06-27T00:18:08.372Z,1001.14
2018-06-27T00:19:18.489Z,1001.1
2018-06-27T00:20:28.975Z,1001.11
2018-06-27T00:21:39.060Z,1001.02
2018-06-27T00:22:49.140Z,1001
2018-06-27T00:23:58.964Z,1000.99
2018-06-27T00:25:09.042Z,1000.95
2018-06-27T00:26:19.165Z,1000.94
2018-06-27T00:27:29.258Z,1000.92
2018-06-27T00:28:39.336Z,1000.91
2018-06-27T00:29:49.414Z,1000.9
2018-06-27T00:30:59.477Z,1000.92
2018-06-27T00:32:09.566Z,1000.94
2018-06-27T00:33:19.632Z,1000.89
2018-06-27T00:34:29.440Z,1000.95
2018-06-27T00:35:39.538Z,1000.95
2018-06-27T00:36:49.618Z,1001.01
2018-06-27T00:37:59.413Z,1001.06
2018-06-27T00:39:09.215Z,1001.09
2018-06-27T00:40:19.288Z,1001.1
2018-06-27T00:41:29.385Z,1001.11
2018-06-27T00:42:39.466Z,1001.09
2018-06-27T00:43:49.535Z,1001.13
2018-06-27T00:44:59.094Z,1001.14
2018-06-27T00:46:09.190Z,1001.1
2018-06-27T00:47:18.747Z,1001.08
2018-06-27T00:48:28.565Z,1001.08
2018-06-27T00:49:38.657Z,1001.11
2018-06-27T00:50:48.714Z,1001.08
2018-06-27T00:51:58.769Z,1001.04
2018-06-27T00:53:08.862Z,1001.06
2018-06-27T00:54:19.001Z,1001.02
2018-06-27T00:55:28.829Z,1001.01
2018-06-27T00:56:38.375Z,1001.07
2018-06-27T00:57:48.440Z,1001.11
2018-06-27T00:58:58.507Z,1001.07
2018-06-27T01:00:08.594Z,1001.04
2018-06-27T01:01:18.663Z,1001.04
2018-06-27T01:02:28.754Z,1001.08
2018-06-27T01:03:38.829Z,1001.07
2018-06-27T01:04:48.622Z,1001.07
2018-06-27T01:05:58.690Z,1001.1
2018-06-27T01:07:08.529Z,1001.09
2018-06-27T01:08:18.605Z,1001.1
2018-06-27T01:09:28.428Z,1001.11
2018-06-27T01:10:38.547Z,1001.12
2018-06-27T01:11:48.971Z,1001.14
2018-06-27T01:12:59.053Z,1001.11
2018-06-27T01:14:09.137Z,1001.13
2018-06-27T01:15:18.421Z,1001.1
2018-06-27T01:16:28.560Z,1001.12
2018-06-27T01:17:38.423Z,1001.13
2018-06-27T01:18:48.481Z,1001.12
2018-06-27T01:19:58.576Z,1001.11
2018-06-27T01:21:08.988Z,1001.15
2018-06-27T01:22:18.812Z,1001.15
2018-06-27T01:23:28.889Z,1001.17
2018-06-27T01:24:38.695Z,1001.13
2018-06-27T01:25:48.233Z,1001.14
2018-06-27T01:26:58.025Z,1001.08
2018-06-27T01:28:08.087Z,1001.13
2018-06-27T01:29:18.155Z,1001.11
2018-06-27T01:30:28.224Z,1001.13
2018-06-27T01:31:38.293Z,1001.05
2018-06-27T01:32:48.363Z,1001.14
2018-06-27T01:33:58.437Z,1001.12
2018-06-27T01:35:08.517Z,1001.19
2018-06-27T01:36:18.588Z,1001.11
2018-06-27T01:37:28.385Z,1001.15
2018-06-27T01:38:38.451Z,1001.18
2018-06-27T01:39:48.245Z,1001.22
2018-06-27T01:40:58.052Z,1001.2
2018-06-27T01:42:08.118Z,1001.23
2018-06-27T01:43:18.180Z,1001.24
2018-06-27T01:44:28.254Z,1001.28
2018-06-27T01:45:38.103Z,1001.28
2018-06-27T01:46:48.175Z,1001.29
2018-06-27T01:47:57.968Z,1001.31
2018-06-27T01:49:08.052Z,1001.32
2018-06-27T01:50:17.854Z,1001.35
2018-06-27T01:51:27.711Z,1001.33
2018-06-27T01:52:37.783Z,1001.35
2018-06-27T01:53:47.854Z,1001.35
2018-06-27T01:54:57.978Z,1001.38
2018-06-27T01:56:07.797Z,1001.38
2018-06-27T01:57:17.884Z,1001.37
2018-06-27T01:58:27.947Z,1001.42
2018-06-27T01:59:38.024Z,1001.41
2018-06-27T02:00:48.104Z,1001.41
2018-06-27T02:01:58.176Z,1001.41
2018-06-27T02:03:07.974Z,1001.45
2018-06-27T02:04:17.804Z,1001.45
2018-06-27T02:05:27.862Z,1001.43
2018-06-27T02:06:37.670Z,1001.47
2018-06-27T02:07:47.482Z,1001.5
2018-06-27T02:08:57.542Z,1001.48
2018-06-27T02:10:06.832Z,1001.52
2018-06-27T02:11:16.897Z,1001.49
2018-06-27T02:12:26.966Z,1001.47
2018-06-27T02:13:37.031Z,1001.48
2018-06-27T02:14:47.101Z,1001.51
2018-06-27T02:15:57.157Z,1001.44
2018-06-27T02:17:07.222Z,1001.46
2018-06-27T02:18:17.025Z,1001.52
2018-06-27T02:19:26.838Z,1001.51
2018-06-27T02:20:36.900Z,1001.49
2018-06-27T02:21:46.966Z,1001.47
2018-06-27T02:22:57.037Z,1001.51
2018-06-27T02:24:06.857Z,1001.5
2018-06-27T02:25:16.945Z,1001.47
2018-06-27T02:26:27.031Z,1001.5
2018-06-27T02:27:37.230Z,1001.48
2018-06-27T02:28:46.650Z,1001.55
2018-06-27T02:29:56.755Z,1001.52
2018-06-27T02:31:06.839Z,1001.49
2018-06-27T02:32:16.723Z,1001.53
2018-06-27T02:33:26.893Z,1001.5
2018-06-27T02:34:36.956Z,1001.5
2018-06-27T02:35:46.766Z,1001.53
2018-06-27T02:36:56.572Z,1001.52
2018-06-27T02:38:06.701Z,1001.54
2018-06-27T02:39:16.781Z,1001.57
2018-06-27T02:40:26.592Z,1001.6
2018-06-27T02:41:36.670Z,1001.56
2018-06-27T02:42:46.476Z,1001.62
2018-06-27T02:43:56.544Z,1001.61
2018-06-27T02:45:06.630Z,1001.63
2018-06-27T02:46:16.712Z,1001.65
2018-06-27T02:47:26.818Z,1001.67
2018-06-27T02:48:36.890Z,1001.66
2018-06-27T02:49:47.036Z,1001.66
2018-06-27T02:50:57.622Z,1001.68
2018-06-27T02:52:07.460Z,1001.65
2018-06-27T02:53:17.541Z,1001.62
2018-06-27T02:54:27.617Z,1001.73
2018-06-27T02:55:37.692Z,1001.69
2018-06-27T02:56:47.761Z,1001.68
2018-06-27T02:57:57.612Z,1001.71
2018-06-27T02:59:07.696Z,1001.66
2018-06-27T03:00:17.799Z,1001.66
2018-06-27T03:01:27.888Z,1001.66
2018-06-27T03:02:37.985Z,1001.63
2018-06-27T03:34:35.592Z,1001.42
2018-06-27T03:35:45.664Z,1001.45
2018-06-27T03:36:55.738Z,1001.37
2018-06-27T03:38:05.803Z,1001.41
2018-06-27T03:39:15.851Z,1001.37
2018-06-27T03:40:25.920Z,1001.4
2018-06-27T03:41:35.980Z,1001.44
2018-06-27T03:42:46.053Z,1001.42
2018-06-27T03:43:56.122Z,1001.43
2018-06-27T03:45:05.910Z,1001.43
2018-06-27T03:46:15.960Z,1001.45
2018-06-27T03:47:26.037Z,1001.45
2018-06-27T03:48:36.112Z,1001.4
2018-06-27T03:49:46.170Z,1001.37
2018-06-27T03:50:56.256Z,1001.37
2018-06-27T03:52:06.055Z,1001.37
2018-06-27T03:53:15.870Z,1001.34
2018-06-27T03:54:25.682Z,1001.38
2018-06-27T03:55:35.226Z,1001.37
2018-06-27T03:56:45.282Z,1001.35
2018-06-27T03:57:56.358Z,1001.4
2018-06-27T03:59:06.230Z,1001.44
2018-06-27T04:00:16.656Z,1001.45
2018-06-27T04:01:26.723Z,1001.45
2018-06-27T04:02:36.792Z,1001.49
2018-06-27T04:03:46.856Z,1001.51
2018-06-27T04:04:56.927Z,1001.46
2018-06-27T04:06:07.006Z,1001.49
2018-06-27T04:07:16.538Z,1001.52
2018-06-27T04:08:26.629Z,1001.56
2018-06-27T04:09:36.742Z,1001.61
2018-06-27T04:10:46.813Z,1001.62
2018-06-27T04:11:56.913Z,1001.59
2018-06-27T04:13:07.215Z,1001.59
2018-06-27T04:14:17.771Z,1001.59
2018-06-27T04:15:27.978Z,1001.56
2018-06-27T04:16:38.057Z,1001.63
2018-06-27T04:17:48.127Z,1001.58
2018-06-27T04:18:58.246Z,1001.61
2018-06-27T04:20:08.335Z,1001.64
2018-06-27T04:21:18.735Z,1001.65
2018-06-27T04:22:28.808Z,1001.63
2018-06-27T04:23:38.886Z,1001.69
2018-06-27T04:24:48.703Z,1001.7
2018-06-27T04:25:58.518Z,1001.67
2018-06-27T04:27:08.614Z,1001.62
2018-06-27T04:28:18.692Z,1001.63
2018-06-27T04:29:28.753Z,1001.65
2018-06-27T04:30:38.297Z,1001.8
2018-06-27T04:31:48.107Z,1001.84
2018-06-27T04:32:58.189Z,1002.33
2018-06-27T04:34:08.255Z,1002.34
2018-06-27T04:35:18.315Z,1002.32
2018-06-27T04:36:28.381Z,1002.22
2018-06-27T04:37:38.446Z,1002.04
2018-06-27T04:38:48.516Z,1001.9
2018-06-27T04:39:58.588Z,1001.84
2018-06-27T04:41:08.665Z,1002.01
2018-06-27T04:42:18.758Z,1001.91
2018-06-27T04:43:28.844Z,1001.94
2018-06-27T04:44:38.942Z,1001.89
2018-06-27T04:45:49.003Z,1001.89
2018-06-27T04:46:59.072Z,1001.96
2018-06-27T04:48:08.890Z,1001.97
2018-06-27T04:49:18.978Z,1001.95
2018-06-27T04:50:29.134Z,1002
2018-06-27T04:51:38.949Z,1002.02
2018-06-27T04:52:48.759Z,1002.03
2018-06-27T04:53:58.829Z,1002.1
2018-06-27T04:55:08.894Z,1002.12
2018-06-27T04:56:18.977Z,1002.07
2018-06-27T04:57:29.075Z,1002.08
2018-06-27T04:58:39.144Z,1002.1
2018-06-27T04:59:48.953Z,1002.13
2018-06-27T05:00:59.020Z,1002.18
2018-06-27T05:02:09.082Z,1002.15
2018-06-27T05:03:19.155Z,1002.16
2018-06-27T05:04:28.977Z,1002.18
2018-06-27T05:05:38.271Z,1002.13
2018-06-27T05:06:48.352Z,1001.94
2018-06-27T05:07:58.423Z,1002.07
2018-06-27T05:09:08.233Z,1002.13
2018-06-27T05:10:18.044Z,1002.05
2018-06-27T05:11:28.124Z,1001.93
2018-06-27T05:12:38.414Z,1001.92
2018-06-27T05:13:48.211Z,1001.95
2018-06-27T05:14:58.030Z,1001.92
2018-06-27T05:16:08.164Z,1001.91
2018-06-27T05:17:18.245Z,1001.91
2018-06-27T05:18:28.057Z,1001.96
2018-06-27T05:19:38.148Z,1001.69
2018-06-27T05:20:48.210Z,1001.94
2018-06-27T05:21:58.319Z,1001.97
2018-06-27T05:23:08.391Z,1001.88
2018-06-27T05:24:18.481Z,1001.65
2018-06-27T05:25:28.567Z,1001.74
2018-06-27T05:26:38.638Z,1002.85
2018-06-27T05:27:48.472Z,1002.81
2018-06-27T05:28:58.570Z,1002.76
2018-06-27T05:30:08.389Z,1002.57
2018-06-27T05:31:18.475Z,1002.49
2018-06-27T05:32:28.573Z,1002.54
2018-06-27T05:33:38.884Z,1002.3
2018-06-27T05:34:49.022Z,1002.3
2018-06-27T05:35:59.144Z,1002.52
2018-06-27T05:37:09.213Z,1002.62
2018-06-27T05:38:19.289Z,1002.57
2018-06-27T05:39:29.369Z,1002.56
2018-06-27T05:40:38.925Z,1002.39
2018-06-27T05:41:49.050Z,1001.82
2018-06-27T05:42:59.138Z,1001.91
2018-06-27T05:44:09.265Z,1002.58
2018-06-27T05:45:19.263Z,1002.55
2018-06-27T05:46:29.343Z,1002.55
2018-06-27T05:47:39.485Z,1002.43
2018-06-27T05:48:49.296Z,1002.51
2018-06-27T05:49:59.368Z,1002.53
2018-06-27T05:51:09.434Z,1001.99
2018-06-27T05:52:19.255Z,1002.02
2018-06-27T05:53:29.348Z,1001.91
2018-06-27T05:54:39.163Z,1001.93
2018-06-27T05:55:49.246Z,1001.87
2018-06-27T05:56:59.349Z,1001.96
2018-06-27T05:58:09.294Z,1001.84
2018-06-27T05:59:19.596Z,1001.99
2018-06-27T06:00:29.694Z,1001.92
2018-06-27T06:01:39.784Z,1001.99
2018-06-27T06:02:49.607Z,1002.1
2018-06-27T06:03:59.671Z,1002.14
2018-06-27T06:05:09.736Z,1002.01
2018-06-27T06:06:19.826Z,1001.98
2018-06-27T06:07:29.911Z,1001.97
2018-06-27T06:08:39.990Z,1001.99
2018-06-27T06:09:49.798Z,1002.03
2018-06-27T06:10:59.914Z,1002
2018-06-27T06:12:09.524Z,1001.93
2018-06-27T06:13:19.607Z,1002.12
2018-06-27T06:14:29.437Z,1002.3
2018-06-27T06:15:39.576Z,1002.18
2018-06-27T06:16:49.654Z,1002.11
2018-06-27T06:17:59.719Z,1002.39
2018-06-27T06:19:09.796Z,1002.1
2018-06-27T06:20:19.892Z,1002.03
2018-06-27T06:21:30.023Z,1002.06
2018-06-27T06:22:40.097Z,1002.28
2018-06-27T06:23:50.182Z,1002.36
2018-06-27T06:25:00.254Z,1002.12
2018-06-27T06:26:10.327Z,1002.24
2018-06-27T06:27:20.391Z,1002.18
2018-06-27T06:28:30.200Z,1002.1
2018-06-27T06:29:40.290Z,1002.15
2018-06-27T06:30:50.366Z,1002.27
2018-06-27T06:32:00.441Z,1002.32
2018-06-27T06:33:10.756Z,1002.02
2018-06-27T06:34:20.823Z,1002.18
2018-06-27T06:35:30.912Z,1001.99
2018-06-27T06:36:41.002Z,1002.23
2018-06-27T06:37:51.074Z,1002.15
2018-06-27T06:39:01.169Z,1001.95
2018-06-27T06:40:11.319Z,1002.05
2018-06-27T06:41:21.397Z,1002.22
2018-06-27T06:42:31.535Z,1002.28
2018-06-27T06:43:41.649Z,1002.11
2018-06-27T06:44:51.466Z,1002.04
2018-06-27T06:46:01.591Z,1002
2018-06-27T06:47:11.953Z,1001.97
2018-06-27T06:48:21.775Z,1001.95
2018-06-27T06:49:31.873Z,1001.87
2018-06-27T06:50:41.687Z,1001.96
2018-06-27T06:51:51.500Z,1001.99
2018-06-27T06:53:01.615Z,1002
2018-06-27T06:54:11.685Z,1002.03
2018-06-27T06:55:21.760Z,1002.04
2018-06-27T06:56:31.555Z,1001.95
2018-06-27T06:57:41.632Z,1001.94
2018-06-27T06:58:51.445Z,1001.9
2018-06-27T07:00:01.258Z,1001.81
2018-06-27T07:01:11.340Z,1001.86
2018-06-27T07:02:21.420Z,1001.87
2018-06-27T07:03:31.224Z,1001.9
2018-06-27T07:04:41.031Z,1001.87
2018-06-27T07:05:51.131Z,1001.84
2018-06-27T07:07:00.998Z,1001.82
2018-06-27T07:08:11.072Z,1001.88
2018-06-27T07:09:20.880Z,1001.9
2018-06-27T07:10:30.993Z,1001.92
2018-06-27T07:11:40.805Z,1001.96
2018-06-27T07:12:50.873Z,1002.05
2018-06-27T07:14:00.953Z,1002
2018-06-27T07:15:11.019Z,1001.98
2018-06-27T07:16:21.097Z,1001.96
2018-06-27T07:17:30.972Z,1001.93
2018-06-27T07:18:40.790Z,1001.96
2018-06-27T07:19:50.604Z,1002.03
2018-06-27T07:21:00.681Z,1001.98
2018-06-27T07:22:10.736Z,1001.96
2018-06-27T07:23:20.531Z,1001.93
2018-06-27T07:24:30.593Z,1002.01
2018-06-27T07:25:40.686Z,1002.05
2018-06-27T07:26:50.764Z,1002.02
2018-06-27T07:28:00.593Z,1002.02
2018-06-27T07:29:10.419Z,1002.1
2018-06-27T07:30:20.231Z,1002.13
2018-06-27T07:31:30.309Z,1002.19
2018-06-27T07:32:39.868Z,1002.17
2018-06-27T07:33:49.982Z,1002.15
2018-06-27T07:35:00.064Z,1002.18
2018-06-27T07:36:09.614Z,1002.18
2018-06-27T07:37:19.703Z,1002.16
2018-06-27T07:38:29.787Z,1002.15
2018-06-27T07:39:39.870Z,1002.15
2018-06-27T07:40:49.939Z,1002.16
2018-06-27T07:42:00.049Z,1002.12
2018-06-27T07:43:10.137Z,1002.13
2018-06-27T07:44:20.280Z,1002.1
2018-06-27T07:45:30.705Z,1002.03
2018-06-27T07:46:40.792Z,1002.06
2018-06-27T07:47:50.628Z,1002.07
2018-06-27T07:49:00.737Z,1002.07
2018-06-27T07:50:10.827Z,1002.05
2018-06-27T07:51:20.912Z,1002.11
2018-06-27T07:52:30.996Z,1002.05
2018-06-27T07:53:41.072Z,1002.05
2018-06-27T07:54:50.617Z,1002.02
2018-06-27T07:56:00.696Z,1002.01
2018-06-27T07:57:10.767Z,1002.04
2018-06-27T07:58:20.851Z,1001.99
2018-06-27T07:59:30.931Z,1002.06
2018-06-27T08:00:41.041Z,1002.05
2018-06-27T08:01:50.869Z,1001.97
2018-06-27T08:03:00.966Z,1001.99
2018-06-27T08:04:10.785Z,1002.03
2018-06-27T08:05:20.897Z,1002.02
2018-06-27T08:06:30.711Z,1002.18
2018-06-27T08:07:40.806Z,1002.15
2018-06-27T08:08:50.895Z,1002.05
2018-06-27T08:10:00.767Z,1001.96
2018-06-27T08:11:10.597Z,1001.97
2018-06-27T08:12:20.817Z,1001.97
2018-06-27T08:13:31.265Z,1002.07
2018-06-27T08:14:41.333Z,1002
2018-06-27T08:15:51.138Z,1001.99
2018-06-27T08:17:01.208Z,1001.93
2018-06-27T08:18:11.039Z,1001.98
2018-06-27T08:19:21.134Z,1002.07
2018-06-27T08:20:31.262Z,1001.95
2018-06-27T08:21:40.820Z,1001.9
2018-06-27T08:22:50.908Z,1001.93
2018-06-27T08:24:01.231Z,1001.82
2018-06-27T08:25:11.053Z,1001.87
2018-06-27T08:26:21.008Z,1001.89
2018-06-27T08:27:32.369Z,1001.9
2018-06-27T08:28:42.173Z,1001.76
2018-06-27T08:29:52.283Z,1001.67
2018-06-27T08:31:02.376Z,1001.73
2018-06-27T08:32:12.277Z,1001.72
2018-06-27T08:33:22.391Z,1001.71
2018-06-27T08:34:32.501Z,1001.7
2018-06-27T08:35:42.333Z,1001.56
2018-06-27T08:36:52.434Z,1001.58
2018-06-27T08:38:02.531Z,1001.54
2018-06-27T08:39:12.611Z,1001.59
2018-06-27T08:40:22.689Z,1001.59
2018-06-27T08:41:32.765Z,1001.6
2018-06-27T08:42:42.607Z,1001.58
2018-06-27T08:43:52.760Z,1001.5
2018-06-27T08:45:02.865Z,1001.57
2018-06-27T08:46:12.709Z,1001.54
2018-06-27T08:47:22.273Z,1001.53
2018-06-27T08:48:32.364Z,1001.51
2018-06-27T08:49:42.579Z,1001.59
2018-06-27T08:50:52.515Z,1001.64
2018-06-27T08:52:02.615Z,1001.62
2018-06-27T08:53:12.713Z,1001.64
2018-06-27T08:54:22.826Z,1001.62
2018-06-27T08:55:32.672Z,1001.67
2018-06-27T08:56:42.481Z,1001.74
2018-06-27T08:57:52.588Z,1001.74
2018-06-27T08:59:02.692Z,1001.72
2018-06-27T09:00:12.795Z,1001.73
2018-06-27T09:01:22.908Z,1001.73
2018-06-27T09:02:33.252Z,1001.73
2018-06-27T09:03:43.397Z,1001.75
2018-06-27T09:04:53.485Z,1001.77
2018-06-27T09:06:03.575Z,1001.76
2018-06-27T09:07:13.716Z,1001.85
2018-06-27T09:08:23.808Z,1001.74
2018-06-27T09:09:33.889Z,1001.74
2018-06-27T09:10:43.704Z,1001.71
2018-06-27T09:11:53.797Z,1001.68
2018-06-27T09:13:03.888Z,1001.77
2018-06-27T09:14:13.721Z,1001.78
2018-06-27T09:15:23.559Z,1001.75
2018-06-27T09:16:33.644Z,1001.7
2018-06-27T09:17:43.481Z,1001.65
2018-06-27T09:18:53.304Z,1001.62
2018-06-27T09:20:03.145Z,1001.67
2018-06-27T09:21:13.293Z,1001.61
2018-06-27T09:22:23.113Z,1001.57
2018-06-27T09:23:33.198Z,1001.53
2018-06-27T09:24:43.499Z,1001.55
2018-06-27T09:25:53.603Z,1001.5
2018-06-27T09:27:04.770Z,1001.51
2018-06-27T09:28:14.878Z,1001.48
2018-06-27T09:29:24.996Z,1001.51
2018-06-27T09:30:34.815Z,1001.48
2018-06-27T09:31:44.657Z,1001.51
2018-06-27T09:32:54.540Z,1001.48
2018-06-27T09:34:04.690Z,1001.44
2018-06-27T09:35:14.751Z,1001.43
2018-06-27T09:36:24.586Z,1001.41
2018-06-27T09:37:34.675Z,1001.35
2018-06-27T09:38:44.512Z,1001.36
2018-06-27T09:39:54.593Z,1001.28
2018-06-27T09:41:04.719Z,1001.31
2018-06-27T09:42:14.794Z,1001.36
2018-06-27T09:43:24.865Z,1001.35
2018-06-27T09:44:34.699Z,1001.33
2018-06-27T09:45:44.518Z,1001.35
2018-06-27T09:46:54.349Z,1001.38
2018-06-27T09:48:04.484Z,1001.35
2018-06-27T09:49:14.614Z,1001.35
2018-06-27T09:50:24.786Z,1001.33
2018-06-27T09:51:35.217Z,1001.36
2018-06-27T09:52:45.082Z,1001.34
2018-06-27T09:53:54.935Z,1001.27
2018-06-27T09:55:05.061Z,1001.32
2018-06-27T09:56:14.926Z,1001.43
2018-06-27T09:57:24.754Z,1001.26
2018-06-27T09:58:34.577Z,1001.32
2018-06-27T09:59:44.406Z,1001.32
2018-06-27T10:00:54.498Z,1001.39
2018-06-27T10:02:04.611Z,1001.29
2018-06-27T10:03:15.067Z,1001.36
2018-06-27T10:04:24.906Z,1001.28
2018-06-27T10:05:34.481Z,1001.26
2018-06-27T10:06:44.315Z,1001.27
2018-06-27T10:07:54.454Z,1001.31
2018-06-27T10:09:04.594Z,1001.33
2018-06-27T10:10:14.751Z,1001.31
2018-06-27T10:11:24.585Z,1001.27
2018-06-27T10:12:34.150Z,1001.28
2018-06-27T10:13:44.035Z,1001.31
2018-06-27T10:14:54.170Z,1001.24
2018-06-27T10:16:04.298Z,1001.19
2018-06-27T10:17:14.418Z,1001.18
2018-06-27T10:18:24.617Z,1001.26
2018-06-27T10:19:34.746Z,1001.11
2018-06-27T10:20:44.666Z,1001.03
2018-06-27T10:21:54.789Z,1000.94
2018-06-27T10:23:04.868Z,1001.02
2018-06-27T10:24:14.961Z,1001.06
2018-06-27T10:25:25.051Z,1001.02
2018-06-27T10:26:35.155Z,1000.9
2018-06-27T10:27:44.963Z,1001
2018-06-27T10:28:54.839Z,1001
2018-06-27T10:30:04.929Z,1000.97
2018-06-27T10:31:15.005Z,1000.9
2018-06-27T10:32:25.110Z,1000.97
2018-06-27T10:33:35.213Z,1000.92
2018-06-27T10:34:45.073Z,1000.95
2018-06-27T10:35:55.445Z,1000.9
2018-06-27T10:37:05.560Z,1000.85
2018-06-27T10:38:15.123Z,1000.94
2018-06-27T10:39:25.276Z,1000.84
2018-06-27T10:40:35.376Z,1000.89
2018-06-27T10:41:44.935Z,1000.82
2018-06-27T10:42:55.061Z,1000.92
2018-06-27T10:44:05.143Z,1000.89
2018-06-27T10:45:15.259Z,1000.84
2018-06-27T10:46:25.353Z,1000.8
2018-06-27T10:47:35.189Z,1000.81
2018-06-27T10:48:45.035Z,1000.87
2018-06-27T10:49:55.151Z,1000.7
2018-06-27T10:51:05.253Z,1000.61
2018-06-27T10:52:15.348Z,1000.66
2018-06-27T10:53:25.446Z,1000.64
2018-06-27T10:54:35.533Z,1000.66
2018-06-27T10:55:45.610Z,1000.7
2018-06-27T10:56:55.914Z,1000.75
2018-06-27T10:58:05.759Z,1000.73
2018-06-27T10:59:15.619Z,1000.74
2018-06-27T11:00:25.718Z,1000.74
2018-06-27T11:01:35.297Z,1000.73
2018-06-27T11:02:45.401Z,1000.75
2018-06-27T11:03:55.491Z,1000.79
2018-06-27T11:05:05.587Z,1000.83
2018-06-27T11:06:15.822Z,1000.81
2018-06-27T11:07:25.907Z,1000.74
2018-06-27T11:08:36.004Z,1000.67
2018-06-27T11:09:45.856Z,1000.71
2018-06-27T11:10:55.682Z,1000.58
2018-06-27T11:12:05.239Z,1000.71
2018-06-27T11:13:15.572Z,1000.64
2018-06-27T11:14:25.687Z,1000.71
2018-06-27T11:15:35.775Z,1000.8
2018-06-27T11:16:45.349Z,1000.79
2018-06-27T11:17:55.463Z,1000.75
2018-06-27T11:19:05.550Z,1000.74
2018-06-27T11:20:15.387Z,1000.78
2018-06-27T11:21:25.687Z,1000.67
2018-06-27T11:22:35.778Z,1000.62
2018-06-27T11:23:45.871Z,1000.64
2018-06-27T11:24:55.931Z,1000.58
2018-06-27T11:26:06.044Z,1000.52
2018-06-27T11:27:16.126Z,1000.52
2018-06-27T11:28:26.213Z,1000.51
2018-06-27T11:29:36.297Z,1000.51
2018-06-27T11:30:46.120Z,1000.47
2018-06-27T11:31:56.225Z,1000.45
2018-06-27T11:33:06.331Z,1000.43
2018-06-27T11:34:16.438Z,1000.48
2018-06-27T11:35:26.525Z,1000.45
2018-06-27T11:36:36.625Z,1000.39
2018-06-27T11:37:46.213Z,1000.41
2018-06-27T11:38:56.293Z,1000.4
2018-06-27T11:40:06.388Z,1000.31
2018-06-27T11:41:16.484Z,1000.33
2018-06-27T11:42:26.684Z,1000.35
2018-06-27T11:43:36.521Z,1000.28
2018-06-27T11:44:46.357Z,1000.34
2018-06-27T11:45:56.204Z,1000.33
2018-06-27T11:47:06.321Z,1000.38
2018-06-27T11:48:16.151Z,1000.34
2018-06-27T11:49:26.259Z,1000.39
2018-06-27T11:50:36.346Z,1000.37
2018-06-27T11:51:46.458Z,1000.34
2018-06-27T11:52:56.603Z,1000.45
2018-06-27T11:54:06.716Z,1000.49
2018-06-27T11:55:16.809Z,1000.43
2018-06-27T11:56:26.914Z,1000.47
2018-06-27T11:57:36.748Z,1000.46
2018-06-27T11:58:46.589Z,1000.41
2018-06-27T11:59:56.667Z,1000.36
2018-06-27T12:01:06.790Z,1000.41
2018-06-27T12:02:16.899Z,1000.36
2018-06-27T12:03:27.032Z,1000.41
2018-06-27T12:04:37.144Z,1000.35
2018-06-27T12:05:47.241Z,1000.29
2018-06-27T12:06:57.347Z,1000.35
2018-06-27T12:08:07.433Z,1000.33
2018-06-27T12:09:17.536Z,1000.33
2018-06-27T12:10:27.598Z,1000.19
2018-06-27T12:11:37.727Z,1000.18
2018-06-27T12:12:47.813Z,1000.23
2018-06-27T12:13:57.925Z,1000.25
2018-06-27T12:15:07.782Z,1000.2
2018-06-27T12:16:17.896Z,1000.21
2018-06-27T12:17:28.006Z,1000.32
2018-06-27T12:18:38.122Z,1000.26
2018-06-27T12:19:48.446Z,1000.32
2018-06-27T12:20:58.535Z,1000.26
2018-06-27T12:22:08.619Z,1000.29
2018-06-27T12:23:18.704Z,1000.13
2018-06-27T12:24:28.794Z,1000.14
2018-06-27T12:25:38.895Z,1000.1
2018-06-27T12:26:48.985Z,1000.14
2018-06-27T12:27:59.572Z,1000.16
2018-06-27T12:29:09.693Z,1000.13
2018-06-27T12:30:19.799Z,1000.03
2018-06-27T12:31:29.882Z,1000.02
2018-06-27T12:32:39.958Z,1000.05
2018-06-27T12:33:50.089Z,1000.06
2018-06-27T12:35:00.174Z,1000.06
2018-06-27T12:36:10.255Z,1000.01
2018-06-27T12:37:20.360Z,1000.02
2018-06-27T12:38:30.200Z,1000.03
2018-06-27T12:39:40.525Z,1000.1
2018-06-27T12:40:50.616Z,1000.15
2018-06-27T12:42:00.756Z,1000.11
2018-06-27T12:43:10.860Z,1000.11
2018-06-27T12:44:20.968Z,1000.07
2018-06-27T12:45:31.413Z,1000.03
2018-06-27T12:46:41.503Z,1000.05
2018-06-27T12:47:51.623Z,1000.06
2018-06-27T12:49:01.735Z,1000.06
2018-06-27T12:50:11.866Z,1000.02
2018-06-27T12:51:22.310Z,1000.05
2018-06-27T12:52:32.146Z,1000.09
2018-06-27T12:53:42.281Z,1000.05
2018-06-27T12:54:52.093Z,1000.06
2018-06-27T12:56:02.182Z,1000.06
2018-06-27T12:57:12.280Z,1000.08
2018-06-27T12:58:22.381Z,1000.09
2018-06-27T12:59:31.997Z,1000.12
2018-06-27T13:00:42.015Z,1000.12
2018-06-27T13:01:52.140Z,1000.12
2018-06-27T13:03:01.974Z,1000.02
2018-06-27T13:04:12.319Z,1000
2018-06-27T13:05:22.159Z,1000.05
2018-06-27T13:06:31.973Z,999.99
2018-06-27T13:07:41.800Z,1000.01
2018-06-27T13:08:51.669Z,1000.08
2018-06-27T13:10:01.892Z,1000.09
2018-06-27T13:11:11.997Z,1000.08
2018-06-27T13:12:22.112Z,1000.07
2018-06-27T13:13:32.462Z,999.96
2018-06-27T13:14:42.572Z,999.89
2018-06-27T13:15:52.759Z,999.9
2018-06-27T13:17:03.006Z,999.81
2018-06-27T13:18:13.100Z,999.8
2018-06-27T13:19:23.200Z,999.92
2018-06-27T13:20:33.308Z,999.86
2018-06-27T13:21:43.416Z,999.84
2018-06-27T13:22:53.553Z,999.78
2018-06-27T13:24:03.630Z,999.79
2018-06-27T13:25:13.451Z,999.83
2018-06-27T13:26:23.566Z,999.78
2018-06-27T13:27:33.736Z,999.78
2018-06-27T13:28:45.043Z,999.75
2018-06-27T13:29:57.693Z,999.71
2018-06-27T13:31:08.312Z,999.75
2018-06-27T13:32:18.569Z,999.76
2018-06-27T13:33:31.286Z,999.73
2018-06-27T13:34:44.020Z,999.64
2018-06-27T13:35:57.507Z,999.66
2018-06-27T13:37:09.747Z,999.6
2018-06-27T13:38:22.301Z,999.63
2018-06-27T13:39:34.954Z,999.68
2018-06-27T13:40:46.356Z,999.68
2018-06-27T13:41:56.450Z,999.73
2018-06-27T13:43:06.544Z,999.71
2018-06-27T13:44:16.507Z,999.67
2018-06-27T13:45:26.595Z,999.64
2018-06-27T13:46:36.423Z,999.56
2018-06-27T13:47:46.528Z,999.52
2018-06-27T13:48:56.356Z,999.51
2018-06-27T13:50:06.329Z,999.62
2018-06-27T13:51:16.780Z,999.52
2018-06-27T13:52:26.913Z,999.49
2018-06-27T13:53:37.035Z,999.45
2018-06-27T13:54:46.893Z,999.29
2018-06-27T13:55:56.738Z,999.31
2018-06-27T13:57:06.835Z,999.42
2018-06-27T13:58:16.699Z,999.43
2018-06-27T13:59:26.912Z,999.42
2018-06-27T14:00:37.350Z,999.39
2018-06-27T14:01:47.220Z,999.39
2018-06-27T14:02:57.558Z,999.42
2018-06-27T14:04:07.441Z,999.46
2018-06-27T14:05:17.566Z,999.41
2018-06-27T14:06:27.682Z,999.37
2018-06-27T14:07:37.913Z,999.32
2018-06-27T14:08:48.005Z,999.31
2018-06-27T14:09:58.189Z,999.33
2018-06-27T14:11:08.023Z,999.34
2018-06-27T14:12:18.185Z,999.26
2018-06-27T14:13:28.030Z,999.27
2018-06-27T14:14:38.144Z,999.22
2018-06-27T14:15:48.293Z,999.17
2018-06-27T14:16:58.426Z,999.14
2018-06-27T14:18:08.528Z,999.13
2018-06-27T14:19:18.658Z,999.19
2018-06-27T14:20:28.826Z,999.18
2018-06-27T14:21:38.669Z,999.29
2018-06-27T14:22:48.216Z,999.15
2018-06-27T14:23:58.339Z,999.17
2018-06-27T14:25:08.946Z,999.22
2018-06-27T14:26:18.797Z,999.25
2018-06-27T14:27:28.640Z,999.24
2018-06-27T14:28:38.742Z,999.19
2018-06-27T14:29:48.856Z,999.2
2018-06-27T14:31:00.031Z,999.26
2018-06-27T14:32:10.185Z,999.19
2018-06-27T14:33:20.044Z,999.16
2018-06-27T14:34:29.877Z,999.19
2018-06-27T14:35:39.712Z,999.19
2018-06-27T14:36:49.831Z,999.21
2018-06-27T14:37:59.659Z,999.23
2018-06-27T14:39:09.762Z,999.18
2018-06-27T14:40:19.858Z,999.15
2018-06-27T14:41:29.697Z,999.16
2018-06-27T14:42:39.268Z,999.25
2018-06-27T14:43:49.142Z,999.47